createdAt,value
2019-03-12T00:01:17.921Z,31.68
2019-03-12T00:03:46.337Z,30.10
2019-03-12T00:06:14.920Z,29.42
2019-03-12T00:08:43.657Z,30.27
2019-03-12T00:11:12.110Z,28.52
2019-03-12T00:13:40.423Z,30.15
2019-03-12T00:16:09.090Z,29.37
2019-03-12T00:18:37.819Z,30.55
2019-03-12T00:21:06.219Z,28.05
2019-03-12T00:23:34.895Z,28.73
2019-03-12T00:26:05.366Z,28.40
2019-03-12T00:28:34.108Z,29.25
2019-03-12T00:31:02.371Z,28.67
2019-03-12T00:33:31.214Z,27.93
2019-03-12T00:35:59.493Z,29.12
2019-03-12T00:38:27.764Z,28.80
2019-03-12T00:40:56.269Z,28.17
2019-03-12T00:43:24.669Z,30.20
2019-03-12T00:45:53.035Z,30.00
2019-03-12T00:48:21.727Z,28.57
2019-03-12T00:50:50.190Z,27.73
2019-03-12T00:53:18.872Z,30.50
2019-03-12T00:55:47.317Z,27.40
2019-03-12T00:58:15.903Z,29.20
2019-03-12T01:00:44.160Z,28.40
2019-03-12T01:03:12.646Z,28.95
2019-03-12T01:05:41.087Z,29.52
2019-03-12T01:08:09.709Z,28.38
2019-03-12T01:10:38.028Z,26.68
2019-03-12T01:13:17.377Z,25.10
2019-03-12T01:15:45.937Z,28.23
2019-03-12T01:18:14.608Z,24.98
2019-03-12T01:20:44.188Z,26.50
2019-03-12T01:23:12.895Z,27.07
2019-03-12T01:25:41.602Z,27.93
2019-03-12T01:28:09.866Z,26.35
2019-03-12T01:30:38.390Z,26.70
2019-03-12T01:33:07.134Z,27.82
2019-03-12T01:35:35.594Z,27.40
2019-03-12T01:38:03.864Z,28.45
2019-03-12T01:40:32.242Z,27.45
2019-03-12T01:43:00.558Z,25.52
2019-03-12T01:45:29.049Z,24.92
2019-03-12T01:47:57.290Z,25.85
2019-03-12T01:50:25.700Z,25.25
2019-03-12T01:52:54.009Z,25.80
2019-03-12T01:55:22.457Z,24.57
2019-03-12T01:57:51.277Z,22.82
2019-03-12T02:00:20.041Z,20.95
2019-03-12T02:02:48.518Z,21.57
2019-03-12T02:05:17.163Z,20.43
2019-03-12T02:07:45.578Z,20.72
2019-03-12T02:10:14.732Z,20.35
2019-03-12T02:12:43.466Z,19.50
2019-03-12T02:15:12.219Z,20.65
2019-03-12T02:17:40.769Z,20.57
2019-03-12T02:20:12.054Z,20.77
2019-03-12T02:22:40.598Z,21.73
2019-03-12T02:25:11.020Z,20.80
2019-03-12T02:27:39.698Z,20.37
2019-03-12T02:30:12.253Z,21.12
2019-03-12T02:32:44.300Z,20.17
2019-03-12T02:35:11.295Z,19.85
2019-03-12T02:37:39.911Z,21.93
2019-03-12T02:40:08.976Z,21.68
2019-03-12T02:42:37.430Z,23.45
2019-03-12T02:45:06.336Z,23.45
2019-03-12T02:47:34.599Z,22.50
2019-03-12T02:50:03.447Z,23.70
2019-03-12T02:52:32.064Z,23.83
2019-03-12T02:55:01.645Z,24.52
2019-03-12T02:57:30.081Z,26.40
2019-03-12T02:59:58.419Z,24.80
2019-03-12T03:02:26.892Z,24.92
2019-03-12T03:04:55.290Z,24.52
2019-03-12T03:07:41.972Z,27.55
2019-03-12T03:10:12.424Z,29.72
2019-03-12T03:12:40.963Z,31.20
2019-03-12T03:15:14.295Z,28.95
2019-03-12T03:17:42.647Z,29.90
2019-03-12T03:20:10.976Z,30.15
2019-03-12T03:22:39.308Z,30.25
2019-03-12T03:25:07.988Z,29.72
2019-03-12T03:27:36.676Z,31.45
2019-03-12T03:30:08.512Z,31.05
2019-03-12T03:32:36.931Z,30.80
2019-03-12T03:35:05.805Z,29.02
2019-03-12T03:37:34.202Z,29.18
2019-03-12T03:40:03.180Z,28.42
2019-03-12T03:42:31.610Z,28.45
2019-03-12T03:44:59.942Z,27.00
2019-03-12T03:47:28.373Z,26.25
2019-03-12T03:49:56.608Z,25.37
2019-03-12T03:52:25.122Z,23.55
2019-03-12T03:54:53.500Z,23.27
2019-03-12T03:57:21.868Z,24.98
2019-03-12T03:59:50.224Z,24.12
2019-03-12T04:02:18.617Z,24.23
2019-03-12T04:04:46.997Z,22.77
2019-03-12T04:07:15.397Z,22.05
2019-03-12T04:09:43.700Z,21.27
2019-03-12T04:12:12.484Z,21.85
2019-03-12T04:14:41.157Z,21.62
2019-03-12T04:17:10.139Z,22.52
2019-03-12T04:19:38.822Z,21.95
2019-03-12T04:22:07.618Z,22.25
2019-03-12T04:24:36.205Z,21.15
2019-03-12T04:27:04.923Z,21.27
2019-03-12T04:29:33.234Z,20.95
2019-03-12T04:32:01.758Z,20.90
2019-03-12T04:34:37.403Z,19.55
2019-03-12T04:37:06.093Z,21.40
2019-03-12T04:39:34.542Z,20.55
2019-03-12T04:42:02.881Z,21.73
2019-03-12T04:44:31.223Z,22.80
2019-03-12T04:46:59.552Z,19.92
2019-03-12T04:49:28.339Z,20.02
2019-03-12T04:51:57.293Z,21.93
2019-03-12T04:54:26.032Z,21.00
2019-03-12T04:56:54.370Z,22.15
2019-03-12T04:59:23.024Z,22.93
2019-03-12T05:01:51.756Z,23.18
2019-03-12T05:04:20.118Z,23.73
2019-03-12T05:06:48.529Z,22.98
2019-03-12T05:09:16.761Z,24.27
2019-03-12T05:11:45.249Z,25.50
2019-03-12T05:14:24.821Z,25.62
2019-03-12T05:16:56.525Z,25.80
2019-03-12T05:19:26.395Z,24.15
2019-03-12T05:21:54.642Z,24.80
2019-03-12T05:24:23.420Z,23.80
2019-03-12T05:26:52.157Z,24.27
2019-03-12T05:29:20.794Z,23.60
2019-03-12T05:31:49.210Z,24.12
2019-03-12T05:34:17.547Z,24.30
2019-03-12T05:36:46.274Z,27.07
2019-03-12T05:39:14.664Z,26.02
2019-03-12T05:41:43.001Z,23.90
2019-03-12T05:44:11.382Z,26.07
2019-03-12T05:46:40.033Z,26.25
2019-03-12T05:49:08.643Z,25.27
2019-03-12T05:51:37.140Z,24.90
2019-03-12T05:54:05.911Z,27.22
2019-03-12T05:56:34.243Z,24.57
2019-03-12T05:59:02.976Z,25.15
2019-03-12T06:01:31.583Z,24.50
2019-03-12T06:03:59.850Z,23.73
2019-03-12T06:06:28.614Z,23.73
2019-03-12T06:08:57.082Z,22.55
2019-03-12T06:11:25.551Z,23.85
2019-03-12T06:13:54.089Z,22.05
2019-03-12T06:16:22.805Z,19.87
2019-03-12T06:18:51.508Z,21.52
2019-03-12T06:21:19.877Z,20.95
2019-03-12T06:23:48.698Z,20.52
2019-03-12T06:26:17.168Z,20.75
2019-03-12T06:28:45.645Z,18.55
2019-03-12T06:31:42.656Z,22.13
2019-03-12T06:34:14.468Z,20.48
2019-03-12T06:37:02.637Z,20.10
2019-03-12T06:39:43.041Z,20.90
2019-03-12T06:42:42.951Z,21.85
2019-03-12T06:45:18.662Z,19.77
2019-03-12T06:48:13.589Z,20.75
2019-03-12T06:50:57.406Z,21.12
2019-03-12T06:53:53.989Z,20.08
2019-03-12T06:56:40.590Z,23.50
2019-03-12T06:59:34.937Z,21.17
2019-03-12T07:02:14.464Z,19.55
2019-03-12T07:05:14.571Z,20.52
2019-03-12T07:07:49.342Z,19.47
2019-03-12T07:10:30.508Z,17.98
2019-03-12T07:13:05.298Z,18.57
2019-03-12T07:15:59.371Z,15.63
2019-03-12T07:18:47.137Z,16.70
2019-03-12T07:21:47.182Z,15.20
2019-03-12T07:24:38.900Z,14.10
2019-03-12T07:27:35.879Z,14.90
2019-03-12T07:30:28.711Z,14.55
2019-03-12T07:33:03.332Z,15.05
2019-03-12T07:35:45.718Z,14.93
2019-03-12T07:38:29.469Z,14.75
2019-03-12T07:41:32.269Z,13.60
2019-03-12T07:44:15.642Z,14.25
2019-03-12T07:46:47.694Z,11.28
2019-03-12T07:49:35.985Z,11.60
2019-03-12T07:52:12.494Z,12.30
2019-03-12T07:55:06.202Z,11.45
2019-03-12T07:57:52.771Z,10.13
2019-03-12T08:00:40.984Z,10.80
2019-03-12T08:03:21.048Z,10.10
2019-03-12T08:06:03.662Z,9.50
2019-03-12T08:08:44.451Z,10.23
2019-03-12T08:14:49.788Z,9.33
2019-03-12T08:17:27.633Z,10.30
2019-03-12T08:20:27.339Z,10.88
2019-03-12T08:23:18.132Z,11.03
2019-03-12T08:25:57.974Z,9.63
2019-03-12T08:28:34.453Z,11.53
2019-03-12T08:31:22.646Z,10.03
2019-03-12T08:34:09.334Z,10.63
2019-03-12T08:36:57.340Z,8.70
2019-03-12T08:39:41.245Z,8.43
2019-03-12T08:42:19.506Z,8.80
2019-03-12T08:45:11.166Z,8.90
2019-03-12T08:47:48.606Z,8.05
2019-03-12T08:50:39.676Z,9.25
2019-03-12T08:53:46.233Z,8.85
2019-03-12T08:56:20.641Z,8.35
2019-03-12T08:59:11.392Z,10.65
2019-03-12T09:02:11.237Z,9.63
2019-03-12T09:05:11.646Z,8.43
2019-03-12T09:08:02.293Z,9.13
2019-03-12T09:10:46.586Z,8.63
2019-03-12T09:13:40.797Z,7.50
2019-03-12T09:16:17.828Z,6.28
2019-03-12T09:19:02.225Z,6.15
2019-03-12T09:21:50.267Z,7.08
2019-03-12T09:24:47.305Z,6.05
2019-03-12T09:27:47.085Z,5.50
2019-03-12T09:30:29.371Z,5.65
2019-03-12T09:33:17.725Z,4.62
2019-03-12T09:36:05.831Z,3.58
2019-03-12T09:38:56.772Z,3.55
2019-03-12T09:44:13.074Z,2.90
2019-03-12T09:47:16.652Z,2.85
2019-03-12T09:49:55.283Z,2.72
2019-03-12T09:52:55.465Z,2.60
2019-03-12T09:55:48.180Z,2.53
2019-03-12T09:58:45.023Z,2.55
2019-03-12T10:01:38.776Z,2.87
2019-03-12T10:04:19.635Z,3.00
2019-03-12T10:10:07.488Z,3.15
2019-03-12T10:12:54.286Z,2.90
2019-03-12T10:15:45.101Z,4.03
2019-03-12T10:21:11.273Z,2.50
2019-03-12T10:24:07.895Z,2.87
2019-03-12T10:26:53.081Z,3.00
2019-03-12T10:29:26.959Z,3.12
2019-03-12T10:32:17.699Z,3.20
2019-03-12T10:35:11.747Z,3.60
2019-03-12T10:38:08.254Z,3.00
2019-03-12T10:41:14.478Z,2.65
2019-03-12T10:43:49.048Z,2.30
2019-03-12T10:46:34.985Z,2.42
2019-03-12T10:49:03.844Z,2.35
2019-03-12T10:51:32.592Z,2.58
2019-03-12T10:54:01.560Z,1.75
2019-03-12T10:56:29.939Z,2.27
2019-03-12T10:58:58.319Z,2.40
2019-03-12T11:01:27.037Z,2.50
2019-03-12T11:03:55.389Z,3.35
2019-03-12T11:06:24.662Z,1.98
2019-03-12T11:08:53.378Z,3.25
2019-03-12T11:11:21.855Z,2.75
2019-03-12T11:13:50.149Z,3.47
2019-03-12T11:16:18.762Z,3.15
2019-03-12T11:18:47.040Z,3.47
2019-03-12T11:21:15.251Z,3.90
2019-03-12T11:23:43.979Z,3.37
2019-03-12T11:26:12.380Z,3.22
2019-03-12T11:28:40.725Z,3.35
2019-03-12T11:31:09.277Z,2.72
2019-03-12T11:33:37.775Z,3.17
2019-03-12T11:36:06.545Z,3.35
2019-03-12T11:38:35.154Z,3.58
2019-03-12T11:41:03.600Z,3.45
2019-03-12T11:43:32.199Z,3.67
2019-03-12T11:46:01.014Z,4.05
2019-03-12T11:48:29.987Z,3.22
2019-03-12T11:50:58.665Z,4.28
2019-03-12T11:53:26.954Z,4.83
2019-03-12T11:55:57.119Z,3.42
2019-03-12T11:58:25.676Z,2.98
2019-03-12T12:00:59.538Z,3.25
2019-03-12T12:03:27.907Z,2.92
2019-03-12T12:05:56.252Z,3.77
2019-03-12T12:08:25.032Z,3.87
2019-03-12T12:10:53.985Z,3.75
2019-03-12T12:13:22.778Z,3.72
2019-03-12T12:15:51.567Z,3.20
2019-03-12T12:18:20.044Z,3.20
2019-03-12T12:20:49.013Z,2.80
2019-03-12T12:23:17.236Z,2.33
2019-03-12T12:25:45.794Z,2.87
2019-03-12T12:28:14.188Z,2.72
2019-03-12T12:30:42.997Z,3.33
2019-03-12T12:33:11.538Z,2.20
2019-03-12T12:35:40.201Z,2.50
2019-03-12T12:38:08.543Z,2.70
2019-03-12T12:40:36.962Z,2.60
2019-03-12T12:43:05.356Z,2.75
2019-03-12T12:45:34.027Z,2.42
2019-03-12T12:48:02.600Z,2.70
2019-03-12T12:50:31.173Z,2.58
2019-03-12T12:52:59.909Z,3.22
2019-03-12T12:55:28.437Z,2.40
2019-03-12T12:57:56.823Z,2.20
2019-03-12T13:00:25.504Z,1.67
2019-03-12T13:02:53.906Z,2.40
2019-03-12T13:05:22.262Z,2.42
2019-03-12T13:07:50.691Z,2.22
2019-03-12T13:10:21.911Z,1.75
2019-03-12T13:12:50.281Z,2.40
2019-03-12T13:15:18.876Z,2.33
2019-03-12T13:17:47.568Z,2.10
2019-03-12T13:20:16.028Z,2.70
2019-03-12T13:22:44.521Z,2.35
2019-03-12T13:25:13.992Z,2.72
2019-03-12T13:27:42.929Z,3.00
2019-03-12T13:30:15.290Z,2.65
2019-03-12T13:32:43.987Z,2.77
2019-03-12T13:35:13.221Z,2.60
2019-03-12T13:37:41.983Z,2.72
2019-03-12T13:40:12.640Z,2.50
2019-03-12T13:42:41.351Z,3.45
2019-03-12T13:45:11.469Z,3.25
2019-03-12T13:47:40.099Z,2.72
2019-03-12T13:50:09.606Z,2.87
2019-03-12T13:52:38.160Z,3.33
2019-03-12T13:55:08.045Z,2.52
2019-03-12T13:57:36.697Z,2.43
2019-03-12T14:00:11.529Z,2.67
2019-03-12T14:02:39.927Z,2.50
2019-03-12T14:05:09.109Z,2.27
2019-03-12T14:07:37.897Z,2.62
2019-03-12T14:10:08.616Z,3.05
2019-03-12T14:15:07.690Z,2.98
2019-03-12T14:17:36.276Z,3.33
2019-03-12T14:20:52.670Z,2.90
2019-03-12T14:23:46.223Z,3.77
2019-03-12T14:26:15.024Z,3.77
2019-03-12T14:28:43.862Z,3.92
2019-03-12T14:31:13.069Z,4.35
2019-03-12T14:33:41.726Z,4.55
2019-03-12T14:36:10.497Z,4.65
2019-03-12T14:38:38.971Z,4.58
2019-03-12T14:41:07.445Z,5.78
2019-03-12T14:43:36.327Z,4.95
2019-03-12T14:46:05.017Z,5.92
2019-03-12T14:49:02.167Z,6.35
2019-03-12T14:52:09.036Z,7.65
2019-03-12T14:54:38.941Z,8.58
2019-03-12T14:57:07.423Z,9.90
2019-03-12T14:59:36.020Z,10.98
2019-03-12T15:02:04.791Z,10.32
2019-03-12T15:04:33.421Z,11.68
2019-03-12T15:07:02.088Z,10.72
2019-03-12T15:09:30.514Z,10.88
2019-03-12T15:11:58.813Z,11.95
2019-03-12T15:14:27.560Z,11.18
2019-03-12T15:16:55.864Z,11.28
2019-03-12T15:19:24.308Z,11.70
2019-03-12T15:21:52.970Z,10.25
2019-03-12T15:24:21.968Z,11.38
2019-03-12T15:26:50.301Z,11.60
2019-03-12T15:29:19.529Z,10.90
2019-03-12T15:31:48.353Z,11.85
2019-03-12T15:34:17.038Z,12.13
2019-03-12T15:36:45.789Z,12.07
2019-03-12T15:39:14.372Z,12.68
2019-03-12T15:41:42.748Z,12.37
2019-03-12T15:44:11.458Z,13.62
2019-03-12T15:46:40.081Z,12.30
2019-03-12T15:49:08.712Z,13.50
2019-03-12T15:51:37.185Z,13.32
2019-03-12T15:54:05.546Z,13.28
2019-03-12T15:56:34.013Z,12.33
2019-03-12T15:59:02.404Z,12.78
2019-03-12T16:01:30.752Z,13.20
2019-03-12T16:03:59.396Z,13.80
2019-03-12T16:06:28.109Z,13.48
2019-03-12T16:08:56.934Z,15.13
2019-03-12T16:11:25.440Z,13.55
2019-03-12T16:13:53.847Z,13.62
2019-03-12T16:16:22.281Z,15.45
2019-03-12T16:18:50.931Z,15.15
2019-03-12T16:21:19.619Z,14.78
2019-03-12T16:23:47.961Z,15.98
2019-03-12T16:26:16.402Z,15.70
2019-03-12T16:28:44.721Z,15.78
2019-03-12T16:31:13.171Z,15.35
2019-03-12T16:33:41.423Z,15.18
2019-03-12T16:36:09.930Z,14.68
2019-03-12T16:38:38.292Z,14.98
2019-03-12T16:41:06.974Z,16.45
2019-03-12T16:43:35.338Z,16.02
2019-03-12T16:46:04.469Z,18.70
2019-03-12T16:48:32.685Z,17.70
2019-03-12T16:51:01.493Z,17.42
2019-03-12T16:53:30.112Z,17.48
2019-03-12T16:55:58.559Z,18.55
2019-03-12T16:58:26.925Z,18.45
2019-03-12T17:00:58.418Z,18.60
2019-03-12T17:03:27.264Z,20.02
2019-03-12T17:05:56.366Z,20.70
2019-03-12T17:08:25.219Z,19.95
2019-03-12T17:11:02.041Z,19.23
2019-03-12T17:13:24.466Z,21.42
2019-03-12T17:15:54.876Z,20.15
2019-03-12T17:18:23.367Z,19.98
2019-03-12T17:20:52.161Z,19.42
2019-03-12T17:23:20.453Z,19.17
2019-03-12T17:25:48.869Z,21.50
2019-03-12T17:28:17.229Z,20.12
2019-03-12T17:30:45.614Z,21.27
2019-03-12T17:33:13.986Z,21.45
2019-03-12T17:35:42.578Z,22.25
2019-03-12T17:38:11.391Z,24.85
2019-03-12T17:40:39.763Z,27.02
2019-03-12T17:43:08.129Z,26.90
2019-03-12T17:45:36.535Z,26.90
2019-03-12T17:48:05.155Z,28.15
2019-03-12T17:50:33.545Z,27.30
2019-03-12T17:53:01.743Z,27.20
2019-03-12T17:55:31.588Z,27.95
2019-03-12T17:57:59.859Z,28.83
2019-03-12T18:00:29.105Z,29.45
2019-03-12T18:02:57.652Z,30.43
2019-03-12T18:05:25.988Z,29.85
2019-03-12T18:07:54.387Z,28.90
2019-03-12T18:10:22.759Z,27.20
2019-03-12T18:12:51.137Z,27.00
2019-03-12T18:15:20.096Z,28.73
2019-03-12T18:17:48.960Z,28.35
2019-03-12T18:20:17.783Z,31.02
2019-03-12T18:22:46.419Z,32.83
2019-03-12T18:25:21.947Z,34.75
2019-03-12T18:27:50.340Z,32.40
2019-03-12T18:30:18.802Z,32.13
2019-03-12T18:32:47.386Z,31.30
2019-03-12T18:35:16.039Z,33.05
2019-03-12T18:37:44.819Z,32.70
2019-03-12T18:40:16.143Z,28.98
2019-03-12T18:42:44.607Z,27.98
2019-03-12T18:45:18.404Z,27.30
2019-03-12T18:47:46.990Z,24.37
2019-03-12T18:50:15.681Z,21.57
2019-03-12T18:52:44.369Z,20.60
2019-03-12T18:56:14.653Z,21.55
2019-03-12T18:58:43.625Z,21.05
2019-03-12T19:01:15.777Z,21.60
2019-03-12T19:03:44.152Z,22.50
2019-03-12T19:06:12.900Z,22.73
2019-03-12T19:08:47.470Z,22.00
2019-03-12T19:11:11.541Z,20.90
2019-03-12T19:13:41.332Z,23.02
2019-03-12T19:16:09.741Z,22.67
2019-03-12T19:18:38.374Z,25.85
2019-03-12T19:21:06.849Z,25.08
2019-03-12T19:23:35.537Z,27.98
2019-03-12T19:26:04.748Z,25.82
2019-03-12T19:28:33.474Z,27.48
2019-03-12T19:31:22.571Z,27.95
2019-03-12T19:33:52.821Z,29.30
2019-03-12T19:36:21.304Z,28.65
2019-03-12T19:38:49.751Z,28.92
2019-03-12T19:41:18.077Z,26.93
2019-03-12T19:43:46.794Z,29.00
2019-03-12T19:46:15.189Z,29.30
2019-03-12T19:48:43.975Z,28.23
2019-03-12T19:51:12.864Z,28.00
2019-03-12T19:53:41.587Z,28.57
2019-03-12T19:56:09.924Z,28.83
2019-03-12T19:58:38.672Z,28.07
2019-03-12T20:01:07.841Z,29.12
2019-03-12T20:03:36.336Z,27.07
2019-03-12T20:06:04.740Z,29.52
2019-03-12T20:08:33.355Z,29.02
2019-03-12T20:11:41.373Z,28.55
2019-03-12T20:15:10.831Z,30.27
2019-03-12T20:19:02.348Z,28.75
2019-03-12T20:22:31.847Z,27.55
2019-03-12T20:26:10.609Z,27.67
2019-03-12T20:29:40.206Z,29.75
2019-03-12T20:33:12.676Z,30.37
2019-03-12T20:36:35.691Z,27.62
2019-03-12T20:40:21.723Z,29.70
2019-03-12T20:43:46.964Z,30.62
2019-03-12T20:47:43.249Z,32.53
2019-03-12T20:51:03.748Z,32.42
2019-03-12T20:54:31.463Z,32.35
2019-03-12T20:58:21.674Z,32.17
2019-03-12T21:01:59.014Z,35.15
2019-03-12T21:05:14.791Z,34.00
2019-03-12T21:09:05.240Z,31.23
2019-03-12T21:12:32.173Z,34.15
2019-03-12T21:16:16.836Z,34.30
2019-03-12T21:19:46.995Z,35.58
2019-03-12T21:23:09.530Z,34.27
2019-03-12T21:26:42.672Z,38.20
2019-03-12T21:29:53.000Z,43.78
2019-03-12T21:32:21.979Z,45.33
2019-03-12T21:34:50.410Z,49.20
2019-03-12T21:37:19.144Z,48.65
2019-03-12T21:39:55.428Z,47.90
2019-03-12T21:42:18.589Z,49.25
2019-03-12T21:44:46.930Z,46.88
2019-03-12T21:47:15.496Z,50.98
2019-03-12T21:49:43.972Z,49.45
2019-03-12T21:52:12.385Z,50.23
2019-03-12T21:54:42.754Z,49.23
2019-03-12T21:57:11.277Z,48.70
2019-03-12T21:59:40.001Z,48.38
2019-03-12T22:02:09.031Z,44.18
2019-03-12T22:04:37.580Z,44.08
2019-03-12T22:07:06.017Z,42.85
2019-03-12T22:09:34.409Z,44.13
2019-03-12T22:12:02.954Z,45.17
2019-03-12T22:14:31.505Z,43.65
2019-03-12T22:17:01.738Z,46.88
2019-03-12T22:19:30.433Z,43.40
2019-03-12T22:22:23.077Z,42.00
2019-03-12T22:24:51.460Z,41.00
2019-03-12T22:27:19.816Z,40.40
2019-03-12T22:29:48.128Z,42.27
2019-03-12T22:32:16.560Z,42.67
2019-03-12T22:34:45.365Z,39.92
2019-03-12T22:37:14.275Z,40.98
2019-03-12T22:39:42.594Z,41.28
2019-03-12T22:42:11.314Z,40.23
2019-03-12T22:44:39.706Z,37.85
2019-03-12T22:47:08.163Z,37.65
2019-03-12T22:49:36.804Z,34.65
2019-03-12T22:52:05.450Z,32.63
2019-03-12T22:54:34.284Z,33.08
2019-03-12T22:57:03.102Z,31.60
2019-03-12T22:59:31.608Z,33.15
2019-03-12T23:02:00.227Z,31.45
2019-03-12T23:04:28.972Z,31.40
2019-03-12T23:07:01.969Z,28.73
2019-03-12T23:09:31.332Z,28.85
2019-03-12T23:12:00.080Z,30.55
2019-03-12T23:14:28.797Z,28.85
2019-03-12T23:16:57.662Z,34.80
2019-03-12T23:19:26.730Z,35.05
2019-03-12T23:21:55.418Z,34.63
2019-03-12T23:24:24.289Z,33.15
2019-03-12T23:26:53.131Z,31.93
2019-03-12T23:29:21.893Z,31.70
2019-03-12T23:31:50.503Z,33.05
2019-03-12T23:34:19.058Z,32.20
2019-03-12T23:36:47.738Z,33.85
2019-03-12T23:39:16.881Z,31.93
2019-03-12T23:41:46.022Z,32.28
2019-03-12T23:44:14.611Z,32.83
2019-03-12T23:46:43.470Z,31.93
2019-03-12T23:49:12.100Z,31.45
2019-03-12T23:51:40.809Z,30.70
2019-03-12T23:54:09.722Z,32.33
2019-03-12T23:56:38.852Z,31.30
2019-03-12T23:59:07.719Z,31.77
